Pos PIC No. Name 1 Name 2 Club Category Laps Total Tm Diff Avg. Speed
1 1 315 Omer Katzman Noam Schiller ccc MEN 1 03:27:03   22.025
2 2 316 Yoav Dror Amnon Israeli the buttons MEN 1 03:30:23 00:03:20 21.675
3 3 320 Eliad Daniel David Reznik SIGMA MEN 1 03:37:48 00:10:45 20.937
4 4 323 Dvir Almog Guy Kaftori CCC MEN 1 03:38:35 00:11:33 20.861
5 1 426 Nadav Lugasy Gal Tsachor ccc Masters 40+ 1 03:40:50 00:13:47 20.648
6 5 322 Lior Biton Rafi Shitrit ncc MEN 1 03:41:59 00:14:57 20.542
7 6 306 Guy Bar Yonatan Yatom hd-trek / team fatty MEN 1 03:45:03 00:18:00 20.263
8 1 509 Amos Gery Zohar Galili Ccc GM 50+ 1 03:46:25 00:19:22 20.14
9 2 428 Moran Mainz Guy Baumel   Masters 40+ 1 03:48:16 00:21:14 19.976
10 3 444 Amitay Cohen Shavit Kohavi דינמו ריסנג Masters 40+ 1 03:50:28 00:23:25 19.786
11 4 437 Eyal Katzenstein Arnon Shadmi CCC Masters 40+ 1 03:51:43 00:24:41 19.679
12 2 501 Gil Olshanski Gil Kashi FGC GM 50+ 1 03:53:12 00:26:09 19.554
13 7 325 Or Dayan Tal Goldman XXX MEN 1 03:53:29 00:26:26 19.531
14 8 310 Omri Arbel Dan Carmel nitro MEN 1 03:53:40 00:26:38 19.514
15 9 319 Ehud Amitai Eldad Ohayon חץ הצפון MEN 1 03:57:19 00:30:16 19.215
16 10 331 NImrod Mashiah Danny Balaban CCc MEN 1 03:59:59 00:32:56 19.001
17 11 302 Wayne Wonnacott Mike Levy Pinkbike MEN 1 04:00:00 00:32:58 19
18 12 311 Guy Shabi Asaf Shaked mike bike MEN 1 04:01:36 00:34:34 18.874
19 13 314 Mosa Shogan Sausar Sagas circassian MEN 1 04:02:31 00:35:28 18.803
20 3 504 Rafi Niv Yakov Cohen tbw GM 50+ 1 04:04:25 00:37:22 18.657
21 5 438 Israel Shaviv Sasy Levi the buttons Masters 40+ 1 04:05:05 00:38:02 18.606
22 6 408 Raz Shamai Arnon Rosenbaum Eshkolot Masters 40+ 1 04:05:16 00:38:13 18.592
23 7 433 Yair Shaked Yuval Levi HR team Masters 40+ 1 04:07:17 00:40:14 18.44
24 8 445 Daniel Kaminsky Eli Altman CCC Masters 40+ 1 04:07:19 00:40:14 18.438
25 14 317 Saar Arni Adar Shadmi Bikeway MEN 1 04:07:30 00:40:28 18.424
26 9 429 Zeev Gottlieb Gil-Ad Boshwitz רוכבי הצפון Masters 40+ 1 04:07:33 00:40:31 18.42
27 10 405 Asaf Inbar Hadorm Carmi BIKE WAY Masters 40+ 1 04:07:34 00:40:31 18.419
28 15 326 Noah Thako Adam Gerchad 0 MEN 1 04:11:01 00:43:58 18.166
29 11 415 Gonen Wilf Tal Gamzo HD-Trek Masters 40+ 1 04:11:49 00:44:47 18.108
30 16 318 Eldad Maimon Geva Yehoshua ccc MEN 1 04:12:15 00:45:13 18.077
31 4 513 Jan Huyse Ron Dagan N+1 GM 50+ 1 04:16:01 00:48:58 17.811
32 17 324 Fima Ulitsky Tal Shorer the buttons MEN 1 04:16:22 00:49:19 17.787
33 1 106 Gil Cohen Maayan Gil מסטרס חיפה MIXED 1 04:16:38 00:49:36 17.768
34 12 406 Lior Cohen Sagi Bareket The Buttons Masters 40+ 1 04:17:55 00:50:53 17.68
35 18 304 Saleh Mah Emanuel Aronhime For Galilee Cycling MEN 1 04:18:45 00:51:42 17.624
36 13 423 Yaniv Shabat ?Golan?‏ Levy?‏ THE BUTTONS Masters 40+ 1 04:19:57 00:52:54 17.542
37 14 431 Zack Uchovski Eylon Zefania we ride Masters 40+ 1 04:20:02 00:53:00 17.536
38 15 442 Tomer Cohen Ori Weitz HR / WBR Team Masters 40+ 1 04:20:43 00:53:40 17.49
39 2 103 Doron Amitz Adi Vainiger 4epic MIXED 1 04:20:54 00:53:51 17.478
40 16 427 Shy Shyman Chen Tal CCC Masters 40+ 1 04:20:57 00:53:55 17.475
41 17 453 Nati Thawco Musa Gerchad Adiga Riders Masters 40+ 1 04:23:18 00:56:14 17.319
42 19 321 Yoav Garibi Arik Kleiman city cycling club MEN 1 04:26:09 00:59:06 17.133
43 18 402 Gil Poyastro Kannenberg Jan - Hennik the buttons Masters 40+ 1 04:27:25 01:00:21 17.052
44 20 328 Daniel Stamler Jonathan Stamler BIKEWAY MEN 1 04:27:28 01:00:26 17.048
45 3 101 Hanoch Redlich Adi Medan-Friling hr team MIXED 1 04:28:37 01:01:35 16.975
46 5 511 Tomer Neuner Alon Abend עצמאי GM 50+ 1 04:29:13 01:02:11 16.938
47 21 330 Adam Shamsi Jan Nash Adiga Riders MEN 1 04:31:35 01:04:32 16.791
48 19 430 Hagai Anaby Roy Haker טים הצגה Masters 40+ 1 04:34:24 01:07:22 16.618
49 6 510 Yoel Vinocur Ido Bourstein HR team GM 50+ 1 04:34:53 01:07:51 16.588
50 20 407 Yaron Rapaport Sagi Unger 4EPIC Masters 40+ 1 04:38:22 01:11:20 16.381
51 4 112 Hadas Weiss Amit Adar ccc MIXED 1 04:40:08 01:13:05 16.278
52 22 308 Uri Luria Guy Luria CHOCOLATE STARFISH MEN 1 04:40:26 01:13:23 16.261
53 21 446 Mario Seroneta Assaf Klein ccc Masters 40+ 1 04:40:26 01:13:23 16.261
54 22 418 Boaz Sokol Barak Oknin Team Bike Way Masters 40+ 1 04:40:46 01:13:44 16.241
55 7 505 Yoni Deshe Shay Kaofman city cycling club GM 50+ 1 04:44:51 01:17:48 16.008
56 1 203 Moran Feller Ola Ostrovsky Bike Way WOMEN 1 04:47:31 01:20:29 15.859
57 23 414 oleg tchernishov Gil Mazor 4epic Masters 40+ 1 04:50:37 01:23:34 15.691
58 8 508 Nir Sever Moshe Feingezicht CCC GM 50+ 1 04:57:38 01:30:36 15.321
59 9 503 Danny Seelenfreund Dudu Goldfarb 4epic GM 50+ 1 05:00:52 01:33:50 15.156
60 24 456 Eitan Fux Eyal Ovadia TEAM 124 Masters 40+ 1 05:01:28 01:34:26 15.126
61 5 107 Ilan Edelson Orna Ratson ccc MIXED 1 05:03:43 01:36:40 15.014
62 25 443 Assaf Eisenstein Shay Yaron team niner Masters 40+ 1 05:05:29 01:38:27 14.927
63 26 451 Yossi Saban Ohad Saban SABAN TEAM Masters 40+ 1 05:06:18 01:39:15 14.887
64 27 447 Tzachi Aviv Shemi Dayan DARDASIM Masters 40+ 1 05:06:26 01:39:24 14.881
65 28 439 Tomer Osher Doron Masuri ccc Masters 40+ 1 05:07:28 01:40:26 14.831
66 23 305 Nir Ben Shabat Yoram Ben Shabat vegan athlete MEN 1 05:09:09 01:42:06 14.75
67 29 404 Shmuel Ezer Oren Grozovik   Masters 40+ 1 05:10:44 01:43:42 14.675
68 30 435 Dvir Libhaber Samuel Attali ccc Masters 40+ 1 05:12:36 01:45:34 14.587
69 31 424 Vaun Wende Rami Asraf buttons Masters 40+ 1 05:14:57 01:47:54 14.479
70 32 425 Shay Ben Hamo Ronen Ben Hamo None Masters 40+ 1 05:15:38 01:48:35 14.447
71 33 421 Yona Dvir Raz Lederman 4EPIC Masters 40+ 1 05:17:02 01:50:00 14.383
72 34 420 ilan shimoni Guy Shalev team bike way Masters 40+ 1 05:18:26 01:51:23 14.32
73 35 454 Roni Elmasel Zohar Oren THE BUTTONS Masters 40+ 1 05:18:53 01:51:50 14.3
74 2 202 Shlomit Ben Ish Amanda Genez ASA WOMEN 1 05:19:43 01:52:41 14.262
75 36 449 Assaf Mizrahi Lior Werner assafAndlior Masters 40+ 1 05:20:05 01:53:02 14.247
76 10 516 Elad Raz Mike Penciner The buttons GM 50+ 1 05:21:22 01:54:19 14.19
77 11 514 Shlomi Deutsch Yossi Ben Shalom good guys GM 50+ 1 05:21:28 01:54:26 14.185
78 3 201 Noga Leiter Anat Chen girls WOMEN 1 05:22:38 01:55:35 14.134
79 37 409 Adi Deutsch Nimrod Ben David Giant Masters 40+ 1 05:25:17 01:58:14 14.018
80 24 303 Tassan Cedric Chausse Benjamin vtopo MEN 1 05:27:23 02:00:21 13.929
81 25 333 Omri Dekel Nissan Cohen GIANT MEN 1 05:28:36 02:01:33 13.877
82 38 452 Eran Gil-Bar Avner Oron --- Masters 40+ 1 05:28:43 02:01:40 13.872
83 39 436 Reuven Kaplan Ofer Arussi Great Big Rhinos Masters 40+ 1 05:29:12 02:02:10 13.851
84 40 441 Alon erez Babi Levi carmeliteam Masters 40+ 1 05:29:25 02:02:23 13.842
85 41 417 Ran inbar Assi Nahir HR team Masters 40+ 1 05:30:05 02:03:02 13.815
86 42 440 Arie Margalit Ori Amir HR Team Masters 40+ 1 05:30:40 02:03:37 13.79
87 43 412 Giora Naveh Ben Bloom B Masters 40+ 1 05:31:07 02:04:04 13.772
88 26 312 Tsahi Tal Max Apartin Rakefet MEN 1 05:34:09 02:07:06 13.647
89 44 416 Yoske Fitoussi Alon Sahar private Masters 40+ 1 05:41:30 02:14:28 13.353
90 6 105 Rami Zamir sharon shachar bikepanel MIXED 1 05:45:47 02:18:45 13.187
91 45 455 Gadi Hornstein Gil Zeller ccc Masters 40+ 1 05:48:27 02:21:25 13.086
92 27 327 Emanuel Stanciu Guy Liran hr team MEN 1 05:50:35 02:23:32 13.007
93 46 403 Zack Nahari Sharon Peri pernah Masters 40+ 1 05:53:46 02:26:43 12.89
94 28 309 Dudi Amir Noam Zach 4epic MEN 1 05:54:55 02:27:52 12.848
95 7 109 Michal Reiss Iftach Sahar ALLRIDE MIXED 1 05:56:34 02:29:31 12.788
96 47 448 Tzvika Gross Itai Ahiraz THE BUTTONS Masters 40+ 1 05:56:39 02:29:36 12.785
97 8 108 Orit Neulander Ron Neulander Bikers MIXED 1 05:57:51 02:30:48 12.743
98 4 204 Carin Goldblatt Dafna Beeri עז ואחות WOMEN 1 05:59:05 02:32:02 12.699
99 9 102 Nhevo Kaufman Sigalit Kaufman Ccc MIXED 1 06:09:07 02:42:04 12.354
100 29 332 Guy Dvir Benny Simpson CSC MEN 1 06:20:12 02:53:10 11.994
101 48 422 Ofer Karp Guy Segal SEGAL'S FRIENDS Masters 40+ 1 06:21:16 02:54:14 11.96
102 49 411 Brad Bemish Anthony Griffin Wheelsports Masters 40+ 1 06:27:13 03:00:11 11.776
103 12 512 Bentzi Raby Eran Shapiro ג'וליאנה השעירה GM 50+ 1 06:40:25 03:13:22 11.388
104 13 515 Dov Nachshon Yoav Hofenbartel Meofefei Shasbhim GM 50+ 1 06:41:46 03:14:43 11.35
105 30 329 Moti Assor Ran Lazar ByKERS MEN 1 06:57:48 03:30:45 10.914
106 50 401 Amir SchwartZ Gabriel Yariv SG Masters 40+ 1 06:59:26 03:32:23 10.872
107 51 419 Zeev Bozhko Edward bortnikov Masters haifa Masters 40+ 1 07:00:17 03:33:15 10.85
108 14 502 Hugo Jan Trago Nir Naveh ccc GM 50+ 1 07:25:32 03:58:29 10.235
                     
                     
                     
      Individuals              
      Gal Moshe 450 team hobbit Masters 40+ 1 03:40:51 00:13:47 20.647
      Stefano Chiri 301 ASD / Six Inch MEN 1 03:57:38 00:30:35 19.19
      Mirko De Angelis 301 ASD / Six Inch MEN 1 04:07:18 00:40:14 18.44
      Tal Naveh 457 הירושלמים Masters 40+ 1 04:25:32 00:58:30 17.172
      Yair Mulay 507 4epic zbabeer GM 50+ 1 05:12:47 01:45:45 14.578
      Reimund Dietzen 506 Merida-Centurion GM 50+ 1 05:21:30 01:54:27 14.184
      Ron Kaftal 104 Individual MIXED 1 05:44:01 02:16:58 13.255
      Yasmine Adel 104 Individual MIXED 1 05:54:49 02:27:47 12.852
      Eliran Chay 313 ULTRAMANISRAEL MEN 1 07:32:51 04:05:48 10.070